<?xml version="1.0" encoding="UTF-8" standalone="no" ?>
<gpx xmlns="http://www.topografix.com/GPX/1/1" xmlns:xsi="http://www.w3.org/2001/XMLSchema-instance" xsi:schemaLocation="http://www.topografix.com/GPX/1/1 http://www.topografix.com/GPX/1/1/gpx.xsd" version="1.1" creator="VisuGPX - https://www.visugpx.com">
  <metadata>
    <name>Etape 2 Férel - Les Moûtiers</name>
    <desc><![CDATA[Randonnée vélo Rennes - Hendaye, empruntant la Vélodyssée à partir de Saint-Brevin-Les-Pins. ]]></desc>
  </metadata>
  <trk>
    <name><![CDATA[Sequence 11]]></name>
    <trkseg>
      <trkpt lat="47.31075" lon="-2.17493">
        <ele>1</ele>
        <time>2016-07-22T06:24:48Z</time>
      </trkpt>
      <trkpt lat="47.31073" lon="-2.17494">
        <ele>1</ele>
        <time>2016-07-22T06:24:54Z</time>
      </trkpt>
      <trkpt lat="47.31064" lon="-2.175">
        <ele>2</ele>
        <time>2016-07-22T06:24:58Z</time>
      </trkpt>
      <trkpt lat="47.31046" lon="-2.17516">
        <ele>3</ele>
        <time>2016-07-22T06:25:04Z</time>
      </trkpt>
      <trkpt lat="47.31032" lon="-2.17531">
        <ele>2</ele>
        <time>2016-07-22T06:25:08Z</time>
      </trkpt>
      <trkpt lat="47.31021" lon="-2.17554">
        <ele>4</ele>
        <time>2016-07-22T06:25:13Z</time>
      </trkpt>
      <trkpt lat="47.31003" lon="-2.17574">
        <ele>9</ele>
        <time>2016-07-22T06:25:18Z</time>
      </trkpt>
      <trkpt lat="47.30972" lon="-2.17612">
        <ele>15</ele>
        <time>2016-07-22T06:25:26Z</time>
      </trkpt>
      <trkpt lat="47.30953" lon="-2.1764">
        <ele>15</ele>
        <time>2016-07-22T06:25:32Z</time>
      </trkpt>
      <trkpt lat="47.30938" lon="-2.17666">
        <ele>16</ele>
        <time>2016-07-22T06:25:37Z</time>
      </trkpt>
      <trkpt lat="47.30934" lon="-2.17671">
        <ele>16</ele>
        <time>2016-07-22T06:25:38Z</time>
      </trkpt>
      <trkpt lat="47.30915" lon="-2.17688">
        <ele>17</ele>
        <time>2016-07-22T06:25:43Z</time>
      </trkpt>
      <trkpt lat="47.30893" lon="-2.17713">
        <ele>14</ele>
        <time>2016-07-22T06:25:48Z</time>
      </trkpt>
      <trkpt lat="47.30855" lon="-2.17754">
        <ele>11</ele>
        <time>2016-07-22T06:25:57Z</time>
      </trkpt>
      <trkpt lat="47.30845" lon="-2.17767">
        <ele>12</ele>
        <time>2016-07-22T06:26:00Z</time>
      </trkpt>
      <trkpt lat="47.30832" lon="-2.1778">
        <ele>10</ele>
        <time>2016-07-22T06:26:03Z</time>
      </trkpt>
      <trkpt lat="47.30815" lon="-2.17801">
        <ele>11</ele>
        <time>2016-07-22T06:26:08Z</time>
      </trkpt>
      <trkpt lat="47.30781" lon="-2.17836">
        <ele>13</ele>
        <time>2016-07-22T06:26:16Z</time>
      </trkpt>
      <trkpt lat="47.30774" lon="-2.17844">
        <ele>12</ele>
        <time>2016-07-22T06:26:18Z</time>
      </trkpt>
      <trkpt lat="47.3076" lon="-2.17856">
        <ele>9</ele>
        <time>2016-07-22T06:26:23Z</time>
      </trkpt>
      <trkpt lat="47.30752" lon="-2.17866">
        <ele>6</ele>
        <time>2016-07-22T06:26:29Z</time>
      </trkpt>
      <trkpt lat="47.3075" lon="-2.17862">
        <ele>5</ele>
        <time>2016-07-22T06:26:33Z</time>
      </trkpt>
      <trkpt lat="47.30751" lon="-2.17858">
        <ele>6</ele>
        <time>2016-07-22T06:26:38Z</time>
      </trkpt>
      <trkpt lat="47.30756" lon="-2.1785">
        <ele>6</ele>
        <time>2016-07-22T06:26:43Z</time>
      </trkpt>
      <trkpt lat="47.30774" lon="-2.17824">
        <ele>5</ele>
        <time>2016-07-22T06:26:52Z</time>
      </trkpt>
      <trkpt lat="47.30778" lon="-2.1782">
        <ele>4</ele>
        <time>2016-07-22T06:26:53Z</time>
      </trkpt>
      <trkpt lat="47.30811" lon="-2.1778">
        <ele>2</ele>
        <time>2016-07-22T06:27:01Z</time>
      </trkpt>
      <trkpt lat="47.30836" lon="-2.17751">
        <ele>2</ele>
        <time>2016-07-22T06:27:06Z</time>
      </trkpt>
      <trkpt lat="47.30846" lon="-2.17739">
        <ele>2</ele>
        <time>2016-07-22T06:27:08Z</time>
      </trkpt>
      <trkpt lat="47.30879" lon="-2.177">
        <ele>3</ele>
        <time>2016-07-22T06:27:15Z</time>
      </trkpt>
      <trkpt lat="47.30884" lon="-2.17697">
        <ele>4</ele>
        <time>2016-07-22T06:27:20Z</time>
      </trkpt>
      <trkpt lat="47.30883" lon="-2.17697">
        <ele>6</ele>
        <time>2016-07-22T06:27:24Z</time>
      </trkpt>
      <trkpt lat="47.30884" lon="-2.17697">
        <ele>5</ele>
        <time>2016-07-22T06:27:28Z</time>
      </trkpt>
      <trkpt lat="47.30884" lon="-2.17697">
        <ele>5</ele>
        <time>2016-07-22T06:27:33Z</time>
      </trkpt>
      <trkpt lat="47.30887" lon="-2.17694">
        <ele>6</ele>
        <time>2016-07-22T06:27:38Z</time>
      </trkpt>
      <trkpt lat="47.30881" lon="-2.17706">
        <ele>8</ele>
        <time>2016-07-22T06:27:43Z</time>
      </trkpt>
      <trkpt lat="47.30863" lon="-2.17729">
        <ele>5</ele>
        <time>2016-07-22T06:27:48Z</time>
      </trkpt>
      <trkpt lat="47.30835" lon="-2.17773">
        <ele>15</ele>
        <time>2016-07-22T06:27:56Z</time>
      </trkpt>
      <trkpt lat="47.30827" lon="-2.17801">
        <ele>13</ele>
        <time>2016-07-22T06:28:02Z</time>
      </trkpt>
      <trkpt lat="47.30837" lon="-2.17818">
        <ele>7</ele>
        <time>2016-07-22T06:28:06Z</time>
      </trkpt>
      <trkpt lat="47.30844" lon="-2.17835">
        <ele>12</ele>
        <time>2016-07-22T06:28:10Z</time>
      </trkpt>
      <trkpt lat="47.30857" lon="-2.17855">
        <ele>10</ele>
        <time>2016-07-22T06:28:14Z</time>
      </trkpt>
      <trkpt lat="47.3087" lon="-2.17881">
        <ele>9</ele>
        <time>2016-07-22T06:28:18Z</time>
      </trkpt>
      <trkpt lat="47.30882" lon="-2.179">
        <ele>5</ele>
        <time>2016-07-22T06:28:23Z</time>
      </trkpt>
      <trkpt lat="47.3089" lon="-2.17923">
        <ele>6</ele>
        <time>2016-07-22T06:28:28Z</time>
      </trkpt>
      <trkpt lat="47.30876" lon="-2.17943">
        <ele>7</ele>
        <time>2016-07-22T06:28:33Z</time>
      </trkpt>
      <trkpt lat="47.30856" lon="-2.17969">
        <ele>6</ele>
        <time>2016-07-22T06:28:38Z</time>
      </trkpt>
      <trkpt lat="47.30833" lon="-2.17998">
        <ele>7</ele>
        <time>2016-07-22T06:28:44Z</time>
      </trkpt>
      <trkpt lat="47.3082" lon="-2.18011">
        <ele>6</ele>
        <time>2016-07-22T06:28:48Z</time>
      </trkpt>
      <trkpt lat="47.30802" lon="-2.18038">
        <ele>6</ele>
        <time>2016-07-22T06:28:54Z</time>
      </trkpt>
      <trkpt lat="47.30772" lon="-2.18074">
        <ele>4</ele>
        <time>2016-07-22T06:29:02Z</time>
      </trkpt>
      <trkpt lat="47.30761" lon="-2.18085">
        <ele>6</ele>
        <time>2016-07-22T06:29:06Z</time>
      </trkpt>
      <trkpt lat="47.30754" lon="-2.18087">
        <ele>7</ele>
        <time>2016-07-22T06:29:08Z</time>
      </trkpt>
      <trkpt lat="47.30745" lon="-2.18085">
        <ele>5</ele>
        <time>2016-07-22T06:29:13Z</time>
      </trkpt>
      <trkpt lat="47.30744" lon="-2.18085">
        <ele>3</ele>
        <time>2016-07-22T06:29:22Z</time>
      </trkpt>
    </trkseg>
  </trk>
</gpx>